Time;durP1;ratioP1;P1;durP2;ratioP2;P2;SDS_P1;SDS_P2;PMS_P1;PMS_P2;Temp;Humidity;BMP_temperature;BMP_pressure;BME280_temperature;BME280_humidity;BME280_pressure;Samples;Min_cycle;Max_cycle;Signal;HPM_P1;HPM_P2
2022/07/27 00:02:05;;;;;;;3.00;1.50;;;24.80;36.80;;;;;;5052965;28;20193;-46
2022/07/27 00:04:30;;;;;;;3.17;1.30;;;24.70;37.20;;;;;;5052763;28;20185;-47
2022/07/27 00:06:56;;;;;;;3.53;1.90;;;24.70;37.20;;;;;;5052458;28;20444;-45
2022/07/27 00:09:22;;;;;;;3.80;1.17;;;24.60;37.30;;;;;;5052755;28;20170;-44
2022/07/27 00:11:48;;;;;;;3.77;2.07;;;24.60;37.50;;;;;;5052478;28;20259;-45
2022/07/27 00:14:14;;;;;;;2.30;1.20;;;24.60;37.60;;;;;;5052733;28;20426;-45
2022/07/27 00:16:40;;;;;;;5.30;1.47;;;24.50;38.00;;;;;;5052600;28;20408;-44
2022/07/27 00:19:06;;;;;;;2.00;1.10;;;24.40;38.10;;;;;;5052615;28;20180;-45
2022/07/27 00:21:32;;;;;;;2.20;1.30;;;24.40;38.20;;;;;;5052559;28;20960;-44
2022/07/27 00:23:58;;;;;;;2.40;1.43;;;24.40;38.40;;;;;;5052434;28;20427;-44
2022/07/27 00:26:24;;;;;;;1.80;1.10;;;24.40;38.50;;;;;;5052122;28;20404;-45
2022/07/27 00:28:50;;;;;;;1.87;1.00;;;24.40;38.60;;;;;;5052526;28;20169;-45
2022/07/27 00:31:15;;;;;;;3.60;1.50;;;24.40;38.80;;;;;;5052685;28;20169;-45
2022/07/27 00:33:41;;;;;;;3.23;1.10;;;24.40;39.00;;;;;;5052167;28;20431;-45
2022/07/27 00:36:07;;;;;;;2.70;1.57;;;24.30;39.30;;;;;;5052201;28;20174;-44
2022/07/27 00:38:33;;;;;;;2.20;1.17;;;24.30;39.50;;;;;;5052311;28;20518;-46
2022/07/27 00:40:59;;;;;;;2.10;1.10;;;24.30;39.70;;;;;;5052222;28;20918;-44
2022/07/27 00:43:24;;;;;;;3.50;1.97;;;24.20;40.10;;;;;;5052203;28;20193;-44
2022/07/27 00:45:50;;;;;;;8.03;1.83;;;24.10;40.60;;;;;;5051978;28;20169;-44
2022/07/27 00:48:16;;;;;;;5.43;1.90;;;24.10;40.80;;;;;;5052056;28;20204;-43
2022/07/27 00:50:42;;;;;;;2.10;1.07;;;24.10;40.80;;;;;;5052118;28;20181;-43
2022/07/27 00:53:09;;;;;;;2.30;1.30;;;24.00;41.00;;;;;;5052075;28;20239;-44
2022/07/27 00:55:35;;;;;;;2.30;1.47;;;24.00;41.60;;;;;;5051837;28;20400;-44
2022/07/27 00:58:04;;;;;;;2.73;1.80;;;24.00;41.70;;;;;;5052032;28;20448;-44
2022/07/27 01:00:30;;;;;;;2.30;1.30;;;23.90;41.80;;;;;;5052013;28;20408;-44
2022/07/27 01:02:56;;;;;;;2.03;1.27;;;23.90;41.70;;;;;;5051967;28;20988;-44
2022/07/27 01:05:22;;;;;;;2.77;1.60;;;23.90;41.70;;;;;;5050812;28;20407;-45
2022/07/27 01:07:48;;;;;;;2.33;1.30;;;23.90;42.00;;;;;;5052421;28;20447;-44
2022/07/27 01:10:15;;;;;;;2.07;1.37;;;23.90;42.30;;;;;;5053136;28;20525;-44
2022/07/27 01:12:43;;;;;;;11.00;1.60;;;23.90;42.20;;;;;;5052656;28;20810;-42
2022/07/27 01:15:09;;;;;;;2.13;1.10;;;23.90;42.50;;;;;;5053067;28;20416;-44
2022/07/27 01:17:35;;;;;;;2.70;1.77;;;23.80;42.50;;;;;;5053006;28;20411;-44
2022/07/27 01:20:00;;;;;;;2.00;1.10;;;23.80;42.70;;;;;;5053263;28;20415;-44
2022/07/27 01:22:26;;;;;;;2.00;1.30;;;23.80;42.50;;;;;;5053190;28;20194;-45
2022/07/27 01:24:52;;;;;;;2.40;1.63;;;23.80;42.60;;;;;;5052396;28;20380;-45
2022/07/27 01:27:18;;;;;;;6.37;1.67;;;23.80;42.70;;;;;;5051671;28;20544;-46
2022/07/27 01:29:44;;;;;;;3.30;1.97;;;23.80;43.00;;;;;;5053333;28;20241;-45
2022/07/27 01:32:10;;;;;;;2.10;1.30;;;23.70;42.90;;;;;;5055642;28;20428;-44
2022/07/27 01:34:36;;;;;;;2.20;1.40;;;23.70;43.20;;;;;;5055681;28;20168;-44
2022/07/27 01:37:03;;;;;;;2.17;1.10;;;23.70;43.50;;;;;;5055433;28;20400;-44
2022/07/27 01:39:30;;;;;;;2.50;1.50;;;23.70;43.40;;;;;;5055806;28;20577;-44
2022/07/27 01:41:56;;;;;;;6.63;1.40;;;23.60;43.50;;;;;;5055548;28;20402;-44
2022/07/27 01:44:22;;;;;;;4.10;1.83;;;23.60;43.60;;;;;;5063544;23;20503;-45
2022/07/27 01:46:47;;;;;;;2.57;1.60;;;23.60;43.30;;;;;;5042141;28;20460;-45
2022/07/27 01:49:13;;;;;;;2.40;1.50;;;23.60;43.40;;;;;;5052846;28;20415;-45
2022/07/27 01:51:39;;;;;;;3.53;1.90;;;23.60;43.50;;;;;;5055414;28;20751;-45
2022/07/27 01:54:05;;;;;;;2.00;1.10;;;23.60;43.80;;;;;;5055424;28;20435;-45
2022/07/27 01:56:31;;;;;;;2.33;1.53;;;23.60;43.60;;;;;;5055012;28;20193;-45
2022/07/27 01:58:57;;;;;;;3.33;1.83;;;23.60;43.80;;;;;;5055191;28;20411;-45
2022/07/27 02:01:23;;;;;;;5.70;2.03;;;23.60;43.70;;;;;;5055158;28;20487;-45
2022/07/27 02:03:49;;;;;;;2.07;1.13;;;23.60;43.90;;;;;;5055134;28;20495;-45
2022/07/27 02:06:15;;;;;;;5.00;1.50;;;23.60;43.80;;;;;;5054813;28;20834;-46
2022/07/27 02:08:41;;;;;;;6.37;2.20;;;23.60;44.10;;;;;;5054999;28;20909;-45
2022/07/27 02:13:51;;;;;;;2.33;1.10;;;23.50;44.00;;;;;;5055322;28;20218;-45
2022/07/27 02:16:17;;;;;;;2.80;1.70;;;23.50;43.70;;;;;;5054708;28;20498;-45
2022/07/27 02:18:44;;;;;;;2.90;1.37;;;23.50;43.80;;;;;;5054892;28;20172;-45
2022/07/27 02:21:09;;;;;;;2.57;1.40;;;23.50;43.70;;;;;;5054880;28;20401;-45
2022/07/27 02:23:37;;;;;;;4.73;1.80;;;23.60;43.90;;;;;;5054783;28;20494;-45
2022/07/27 02:26:04;;;;;;;2.57;1.60;;;23.50;43.90;;;;;;5054462;28;20427;-46
2022/07/27 02:28:31;;;;;;;4.07;1.90;;;23.50;43.70;;;;;;5054640;28;20539;-46
2022/07/27 02:30:57;;;;;;;3.13;1.57;;;23.50;43.20;;;;;;5054732;28;20404;-45
2022/07/27 02:33:22;;;;;;;8.43;1.60;;;23.50;42.80;;;;;;5054555;28;20418;-45
2022/07/27 02:35:48;;;;;;;2.43;1.40;;;23.40;42.90;;;;;;5054362;28;20215;-46
2022/07/27 02:38:14;;;;;;;2.20;1.20;;;23.40;42.80;;;;;;5054508;28;20173;-45
2022/07/27 02:40:40;;;;;;;3.63;3.03;;;23.40;42.70;;;;;;5054233;28;20852;-45
2022/07/27 02:43:05;;;;;;;2.00;1.07;;;23.40;42.70;;;;;;5054467;28;20169;-45
2022/07/27 02:45:31;;;;;;;2.80;1.53;;;23.50;42.80;;;;;;5054230;28;20981;-45
2022/07/27 02:47:57;;;;;;;5.60;1.90;;;23.50;42.70;;;;;;5054197;28;20591;-45
2022/07/27 02:50:23;;;;;;;3.67;1.93;;;23.40;42.40;;;;;;5054255;28;20158;-45
2022/07/27 02:52:49;;;;;;;3.70;2.00;;;23.40;42.50;;;;;;5054203;28;20184;-45
2022/07/27 02:55:14;;;;;;;2.60;1.63;;;23.30;42.60;;;;;;5054048;28;20443;-45
2022/07/27 02:57:40;;;;;;;3.50;1.50;;;23.30;42.50;;;;;;5054073;28;20174;-45
2022/07/27 03:00:11;;;;;;;3.70;1.63;;;23.30;42.30;;;;;;5054169;28;20176;-45
2022/07/27 03:02:37;;;;;;;3.23;1.80;;;23.30;42.30;;;;;;5054065;28;20218;-45
2022/07/27 03:05:05;;;;;;;6.20;1.97;;;23.30;42.30;;;;;;5053972;28;20461;-45
2022/07/27 03:07:31;;;;;;;4.80;1.60;;;23.20;41.90;;;;;;5053917;28;20458;-45
2022/07/27 03:09:57;;;;;;;3.57;1.77;;;23.20;41.80;;;;;;5053953;28;20404;-45
2022/07/27 03:12:22;;;;;;;4.00;1.60;;;23.20;41.90;;;;;;5053928;28;20400;-45
2022/07/27 03:14:48;;;;;;;2.07;1.37;;;23.20;42.00;;;;;;5053990;28;20279;-45
2022/07/27 03:17:14;;;;;;;2.70;1.43;;;23.20;41.50;;;;;;5053486;28;20919;-45
2022/07/27 03:19:40;;;;;;;7.40;2.20;;;23.20;41.50;;;;;;5052474;28;20177;-45
2022/07/27 03:22:05;;;;;;;3.43;1.97;;;23.20;41.80;;;;;;5053740;28;20176;-45
2022/07/27 03:24:31;;;;;;;3.30;1.40;;;23.20;41.00;;;;;;5053429;28;20528;-45
2022/07/27 03:26:57;;;;;;;4.20;1.20;;;23.10;41.10;;;;;;5053297;28;20246;-45
2022/07/27 03:29:23;;;;;;;3.57;1.30;;;23.10;40.70;;;;;;5053629;28;20625;-45
2022/07/27 03:31:49;;;;;;;2.00;1.40;;;23.10;40.40;;;;;;5053684;28;20596;-44
2022/07/27 03:34:14;;;;;;;8.13;1.33;;;23.10;40.20;;;;;;5053474;28;20161;-45
2022/07/27 03:36:40;;;;;;;6.20;1.40;;;23.00;40.00;;;;;;5053158;28;20173;-45
2022/07/27 03:39:06;;;;;;;2.83;1.33;;;23.00;39.50;;;;;;5053396;28;20163;-45
2022/07/27 03:41:32;;;;;;;3.07;1.60;;;23.00;39.50;;;;;;5053335;28;20243;-45
2022/07/27 03:43:57;;;;;;;2.20;1.13;;;23.00;39.10;;;;;;5053307;28;20165;-45
2022/07/27 03:46:23;;;;;;;3.03;1.43;;;23.00;39.00;;;;;;5052831;28;20201;-45
2022/07/27 03:48:49;;;;;;;3.20;1.50;;;23.00;39.10;;;;;;5053143;28;20226;-45
2022/07/27 03:51:15;;;;;;;2.40;1.37;;;23.00;39.00;;;;;;5053123;28;20177;-45
2022/07/27 03:53:40;;;;;;;1.97;1.20;;;23.00;38.80;;;;;;5052451;28;20166;-45
2022/07/27 03:56:06;;;;;;;3.53;1.30;;;23.00;38.80;;;;;;5052764;28;20672;-45
2022/07/27 03:58:32;;;;;;;3.33;1.40;;;22.90;38.90;;;;;;5051653;28;20181;-45
2022/07/27 04:00:58;;;;;;;2.33;1.33;;;22.90;38.50;;;;;;5052837;28;20177;-45
2022/07/27 04:03:24;;;;;;;2.63;1.33;;;22.90;38.50;;;;;;5052910;28;20214;-45
2022/07/27 04:05:49;;;;;;;8.80;1.23;;;22.80;38.00;;;;;;5052592;28;20433;-45
2022/07/27 04:08:16;;;;;;;3.73;1.07;;;22.80;38.30;;;;;;5052733;28;20855;-45
2022/07/27 04:10:42;;;;;;;4.07;1.00;;;22.90;38.30;;;;;;5053009;28;20256;-45
2022/07/27 04:13:11;;;;;;;3.73;2.17;;;22.80;37.70;;;;;;5052713;28;20776;-45
2022/07/27 04:15:37;;;;;;;3.57;1.33;;;22.80;37.80;;;;;;5052315;28;20981;-45
2022/07/27 04:18:03;;;;;;;2.30;1.27;;;22.80;37.90;;;;;;5053026;28;20412;-44
2022/07/27 04:20:29;;;;;;;3.70;1.57;;;22.80;37.70;;;;;;5053531;28;20411;-44
2022/07/27 04:22:54;;;;;;;6.13;1.33;;;22.80;37.60;;;;;;5055571;28;20473;-44
2022/07/27 04:25:21;;;;;;;3.83;1.43;;;22.80;37.20;;;;;;5055709;28;20213;-43
2022/07/27 04:27:47;;;;;;;1.77;0.90;;;22.80;37.50;;;;;;5055010;28;20197;-45
2022/07/27 04:30:13;;;;;;;4.20;1.90;;;22.80;37.70;;;;;;5054928;28;20434;-44
2022/07/27 04:32:39;;;;;;;3.30;1.30;;;22.70;37.70;;;;;;5055665;28;20411;-44
2022/07/27 04:35:06;;;;;;;4.80;1.40;;;22.70;37.90;;;;;;5055038;28;20424;-44
2022/07/27 04:37:33;;;;;;;6.73;2.30;;;22.70;37.50;;;;;;5052837;28;20469;-45
2022/07/27 04:39:59;;;;;;;4.87;1.63;;;22.70;37.60;;;;;;5052924;28;20411;-45
2022/07/27 04:42:25;;;;;;;3.40;2.07;;;22.70;37.80;;;;;;5052341;28;20408;-45
2022/07/27 04:44:51;;;;;;;2.67;1.23;;;22.70;37.80;;;;;;5052047;28;20927;-45
2022/07/27 04:47:17;;;;;;;3.07;1.20;;;22.70;38.10;;;;;;5051866;28;20204;-45
2022/07/27 04:49:43;;;;;;;4.23;1.23;;;22.70;38.10;;;;;;5052326;28;20532;-45
2022/07/27 04:52:09;;;;;;;2.43;1.47;;;22.70;38.20;;;;;;5052051;28;20496;-45
2022/07/27 04:54:35;;;;;;;1.90;0.90;;;22.70;38.00;;;;;;5052215;28;20434;-45
2022/07/27 04:57:01;;;;;;;3.70;1.43;;;22.70;37.70;;;;;;5051929;28;20231;-45
2022/07/27 04:59:27;;;;;;;2.90;1.10;;;22.70;37.50;;;;;;5052237;28;20573;-45
2022/07/27 05:01:53;;;;;;;2.53;1.00;;;22.70;37.50;;;;;;5052004;28;20231;-45
2022/07/27 05:04:18;;;;;;;5.60;1.40;;;22.70;37.30;;;;;;5050922;28;20416;-45
2022/07/27 05:06:45;;;;;;;5.30;1.30;;;22.70;37.10;;;;;;5051623;28;20169;-45
2022/07/27 05:09:11;;;;;;;2.10;1.00;;;22.70;37.20;;;;;;5051846;28;20634;-45
2022/07/27 05:11:37;;;;;;;2.10;1.00;;;22.70;37.20;;;;;;5052001;28;20491;-45
2022/07/27 05:14:03;;;;;;;2.53;1.07;;;22.70;37.20;;;;;;5051763;28;20556;-45
2022/07/27 05:16:28;;;;;;;4.67;1.50;;;22.70;37.10;;;;;;5051622;28;20188;-44
2022/07/27 05:18:54;;;;;;;5.00;1.83;;;22.70;36.80;;;;;;5051991;28;20412;-45
2022/07/27 05:21:20;;;;;;;4.00;1.20;;;22.70;35.90;;;;;;5052037;28;20174;-45
2022/07/27 05:23:46;;;;;;;6.57;1.60;;;22.60;36.10;;;;;;5051807;28;20900;-45
2022/07/27 05:26:12;;;;;;;3.73;1.40;;;22.70;36.10;;;;;;5051696;28;20903;-45
2022/07/27 05:28:38;;;;;;;3.67;1.50;;;22.60;35.90;;;;;;5051541;28;20451;-45
2022/07/27 05:31:03;;;;;;;3.00;1.60;;;22.60;35.80;;;;;;5051727;28;20170;-45
2022/07/27 05:33:29;;;;;;;2.10;1.20;;;22.60;36.10;;;;;;5051618;28;20173;-44
2022/07/27 05:35:55;;;;;;;2.33;1.40;;;22.60;36.30;;;;;;5051404;28;20213;-45
2022/07/27 05:38:21;;;;;;;5.83;1.10;;;22.60;36.30;;;;;;5051889;28;20559;-45
2022/07/27 05:40:47;;;;;;;1.67;0.90;;;22.60;35.70;;;;;;5051931;28;20928;-45
2022/07/27 05:43:13;;;;;;;2.93;1.17;;;22.60;35.70;;;;;;5050304;28;20435;-45
2022/07/27 05:45:39;;;;;;;3.93;1.70;;;22.60;35.70;;;;;;5051114;28;20463;-45
2022/07/27 05:48:05;;;;;;;2.20;1.10;;;22.60;35.50;;;;;;5051344;28;20280;-45
2022/07/27 05:50:31;;;;;;;2.80;1.00;;;22.60;35.30;;;;;;5051517;28;20411;-45
2022/07/27 05:52:57;;;;;;;3.20;1.30;;;22.60;35.30;;;;;;5051778;28;20454;-45
2022/07/27 05:55:24;;;;;;;3.80;1.00;;;22.70;35.20;;;;;;5051324;28;20419;-45
2022/07/27 05:57:50;;;;;;;2.23;1.20;;;22.60;34.80;;;;;;5051330;28;20412;-45
2022/07/27 06:00:16;;;;;;;2.00;1.00;;;22.70;34.70;;;;;;5051478;28;20430;-45
2022/07/27 06:02:42;;;;;;;3.17;0.87;;;22.70;34.40;;;;;;5051423;28;20173;-45
2022/07/27 06:05:09;;;;;;;4.23;1.13;;;22.60;34.00;;;;;;5051329;28;20787;-45
2022/07/27 06:10:19;;;;;;;2.90;1.67;;;22.60;33.70;;;;;;5051629;28;20530;-45
2022/07/27 06:12:45;;;;;;;3.50;1.00;;;22.60;33.80;;;;;;5051613;28;20490;-45
2022/07/27 06:15:12;;;;;;;4.13;1.53;;;22.70;33.70;;;;;;5051709;28;20899;-45
2022/07/27 06:17:38;;;;;;;3.50;1.07;;;22.70;33.80;;;;;;5055013;28;20752;-43
2022/07/27 06:20:06;;;;;;;4.90;1.13;;;22.70;33.80;;;;;;5054814;28;20945;-44
2022/07/27 06:22:32;;;;;;;2.90;1.37;;;22.80;33.90;;;;;;5054710;28;20506;-44
2022/07/27 06:24:58;;;;;;;5.20;1.00;;;22.80;33.80;;;;;;5054762;28;20581;-44
2022/07/27 06:27:24;;;;;;;3.00;1.00;;;22.70;33.40;;;;;;5054324;28;20455;-45
2022/07/27 06:29:50;;;;;;;2.70;1.50;;;22.80;33.50;;;;;;5054609;28;20423;-43
2022/07/27 06:32:16;;;;;;;2.37;1.07;;;22.80;33.40;;;;;;5054577;28;20404;-44
2022/07/27 06:34:42;;;;;;;3.67;1.60;;;22.80;33.80;;;;;;5054693;28;20251;-44
2022/07/27 06:37:07;;;;;;;2.83;1.60;;;22.80;33.50;;;;;;5054256;28;20749;-45
2022/07/27 06:39:33;;;;;;;3.50;1.20;;;22.80;33.50;;;;;;5054707;28;20180;-45
2022/07/27 06:41:59;;;;;;;2.77;0.87;;;22.80;32.60;;;;;;5054627;28;20180;-44
2022/07/27 06:44:24;;;;;;;2.70;1.10;;;22.80;33.00;;;;;;5054139;28;20166;-43
2022/07/27 06:46:59;;;;;;;2.07;0.90;;;22.80;33.40;;;;;;5054121;28;20173;-44
2022/07/27 06:49:25;;;;;;;3.53;1.40;;;22.90;33.60;;;;;;5054241;28;20679;-43
2022/07/27 06:51:52;;;;;;;2.83;0.90;;;22.90;33.30;;;;;;5054281;28;20416;-45
2022/07/27 06:54:17;;;;;;;3.33;1.33;;;23.00;33.30;;;;;;5054200;28;20231;-45
2022/07/27 06:56:43;;;;;;;2.03;1.13;;;22.90;32.70;;;;;;5053833;28;20426;-44
2022/07/27 06:59:09;;;;;;;3.20;1.07;;;23.00;32.80;;;;;;5054082;28;20258;-43
2022/07/27 07:01:43;;;;;;;7.63;1.43;;;23.00;32.40;;;;;;5054105;28;20414;-44
2022/07/27 07:04:09;;;;;;;4.23;2.40;;;23.00;32.20;;;;;;5054365;28;20169;-44
2022/07/27 07:06:35;;;;;;;2.40;1.20;;;23.00;32.40;;;;;;5053658;28;20561;-44
2022/07/27 07:09:01;;;;;;;4.40;1.33;;;23.00;32.60;;;;;;5054236;28;20545;-43
2022/07/27 07:11:27;;;;;;;2.00;1.00;;;23.00;32.40;;;;;;5053690;28;20664;-43
2022/07/27 07:13:52;;;;;;;2.40;1.43;;;23.00;32.60;;;;;;5053795;28;20427;-42
2022/07/27 07:16:18;;;;;;;3.53;1.10;;;23.10;32.10;;;;;;5053412;28;20211;-44
2022/07/27 07:18:44;;;;;;;1.90;0.80;;;23.10;32.20;;;;;;5053782;28;20166;-44
2022/07/27 07:21:10;;;;;;;4.73;1.00;;;23.20;32.20;;;;;;5053692;28;20541;-44
2022/07/27 07:23:36;;;;;;;4.50;1.13;;;23.20;32.20;;;;;;5053901;28;20411;-43
2022/07/27 07:26:02;;;;;;;3.10;1.17;;;23.30;32.20;;;;;;5053231;28;20225;-44
2022/07/27 07:28:27;;;;;;;6.13;1.10;;;23.30;32.20;;;;;;5052778;28;20471;-43
2022/07/27 07:30:53;;;;;;;3.83;1.30;;;23.40;32.20;;;;;;5053505;28;20408;-43
2022/07/27 07:33:19;;;;;;;3.00;0.90;;;23.50;32.20;;;;;;5053381;28;20177;-43
2022/07/27 07:35:45;;;;;;;3.00;0.77;;;23.50;32.30;;;;;;5053097;28;20225;-44
2022/07/27 07:38:11;;;;;;;1.80;0.87;;;23.50;32.20;;;;;;5053407;28;20230;-45
2022/07/27 07:40:37;;;;;;;2.40;1.00;;;23.60;32.50;;;;;;5053127;28;20417;-44
2022/07/27 07:43:04;;;;;;;2.20;0.83;;;23.60;32.60;;;;;;5053492;28;20192;-44
2022/07/27 07:45:33;;;;;;;5.90;1.67;;;23.60;31.70;;;;;;5052931;28;20452;-43
2022/07/27 07:47:59;;;;;;;5.30;1.20;;;23.70;31.70;;;;;;5053204;28;20471;-44
2022/07/27 07:50:26;;;;;;;3.73;1.00;;;23.70;31.40;;;;;;5056767;23;20503;-44
2022/07/27 07:52:53;;;;;;;2.80;1.00;;;23.70;31.20;;;;;;5044785;28;20407;-45
2022/07/27 07:55:24;;;;;;;1.90;0.70;;;23.70;30.60;;;;;;5053260;28;20408;-44
2022/07/27 07:57:50;;;;;;;1.80;0.80;;;23.70;31.20;;;;;;5053185;28;20509;-44
2022/07/27 08:00:17;;;;;;;2.03;0.97;;;23.60;31.70;;;;;;5052481;28;20432;-45
2022/07/27 08:02:48;;;;;;;10.83;1.13;;;23.60;31.00;;;;;;5053176;28;20408;-45
2022/07/27 08:05:14;;;;;;;3.23;1.03;;;23.60;30.90;;;;;;5052881;28;20411;-44
2022/07/27 08:07:41;;;;;;;4.80;1.30;;;23.60;31.10;;;;;;5052628;28;20456;-44
2022/07/27 08:10:09;;;;;;;2.30;1.20;;;23.60;31.30;;;;;;5052678;28;20927;-44
2022/07/27 08:12:36;;;;;;;3.80;0.97;;;23.60;30.60;;;;;;5052784;28;20396;-44
2022/07/27 08:15:02;;;;;;;2.97;1.00;;;23.50;30.60;;;;;;5052645;28;20404;-44
2022/07/27 08:17:28;;;;;;;1.93;0.83;;;23.50;30.50;;;;;;5052393;28;20427;-44
2022/07/27 08:19:54;;;;;;;2.70;1.37;;;23.50;30.40;;;;;;5052523;28;20407;-44
2022/07/27 08:22:20;;;;;;;2.00;0.93;;;23.50;30.60;;;;;;5052580;28;20252;-45
2022/07/27 08:24:45;;;;;;;3.97;1.37;;;23.50;30.50;;;;;;5052469;28;20253;-44
2022/07/27 08:27:11;;;;;;;2.07;1.13;;;23.50;30.60;;;;;;5052361;28;20196;-44
2022/07/27 08:29:38;;;;;;;3.10;1.10;;;23.50;30.50;;;;;;5052574;28;20554;-44
2022/07/27 08:32:04;;;;;;;1.60;0.73;;;23.50;30.70;;;;;;5052611;28;20180;-44
2022/07/27 08:34:30;;;;;;;2.17;0.80;;;23.60;30.70;;;;;;5052361;28;20771;-44
2022/07/27 08:36:57;;;;;;;8.20;1.17;;;23.60;30.90;;;;;;5052151;28;20396;-43
2022/07/27 08:39:23;;;;;;;2.07;1.00;;;23.60;30.80;;;;;;5052082;28;20173;-44
2022/07/27 08:41:52;;;;;;;2.40;0.90;;;23.70;30.70;;;;;;5052106;28;20427;-42
2022/07/27 08:44:23;;;;;;;1.70;0.63;;;23.70;30.20;;;;;;5052245;28;20411;-43
2022/07/27 08:46:49;;;;;;;1.67;0.77;;;23.70;30.00;;;;;;5051926;28;20397;-42
2022/07/27 08:49:16;;;;;;;1.90;0.80;;;23.70;29.70;;;;;;5052296;28;20462;-43
2022/07/27 08:51:43;;;;;;;2.43;0.70;;;23.70;29.60;;;;;;5051914;28;20441;-43
2022/07/27 08:54:09;;;;;;;2.27;0.80;;;23.60;29.50;;;;;;5052050;28;20498;-43
2022/07/27 08:56:36;;;;;;;2.47;0.50;;;23.60;29.00;;;;;;5051790;28;20498;-44
2022/07/27 08:59:03;;;;;;;2.60;0.90;;;23.70;29.10;;;;;;5052026;28;20419;-43
2022/07/27 09:01:34;;;;;;;2.33;0.97;;;23.60;29.00;;;;;;5052207;28;20435;-43
2022/07/27 09:03:59;;;;;;;3.07;0.97;;;23.70;29.30;;;;;;5052032;28;20412;-43
2022/07/27 09:06:51;;;;;;;2.00;0.73;;;23.70;29.30;;;;;;5051707;28;20442;-43
2022/07/27 09:09:18;;;;;;;2.00;0.80;;;23.70;29.50;;;;;;5048202;28;20649;-43
2022/07/27 09:12:08;;;;;;;3.80;1.33;;;23.80;29.60;;;;;;5051966;28;20412;-45
2022/07/27 09:14:37;;;;;;;2.40;0.90;;;23.90;29.40;;;;;;5052145;28;20407;-45
2022/07/27 09:17:23;;;;;;;4.10;1.30;;;23.90;29.40;;;;;;5051661;28;20392;-45
2022/07/27 09:20:01;;;;;;;7.53;1.73;;;23.90;29.50;;;;;;5052001;28;20895;-45
2022/07/27 09:22:49;;;;;;;1.97;0.83;;;24.00;29.60;;;;;;5051742;28;20388;-45
2022/07/27 09:25:20;;;;;;;3.70;0.97;;;24.00;29.10;;;;;;5052024;28;20380;-45
2022/07/27 09:27:48;;;;;;;2.53;0.83;;;24.00;29.50;;;;;;5051442;28;20466;-45
2022/07/27 09:30:18;;;;;;;3.87;1.03;;;24.00;29.70;;;;;;5051703;28;20552;-45
2022/07/27 09:32:57;;;;;;;2.67;1.10;;;24.00;29.50;;;;;;5051918;28;20404;-45
2022/07/27 09:35:26;;;;;;;3.60;1.40;;;24.10;29.60;;;;;;5051682;28;20418;-45
2022/07/27 09:37:52;;;;;;;2.37;1.23;;;24.10;29.50;;;;;;5051493;28;20416;-46
2022/07/27 09:40:21;;;;;;;2.23;0.70;;;24.00;29.50;;;;;;5051507;28;20470;-46
2022/07/27 09:42:47;;;;;;;2.00;0.77;;;24.00;29.10;;;;;;5051910;28;20492;-45
2022/07/27 09:45:33;;;;;;;2.10;1.03;;;24.00;29.40;;;;;;5051885;28;20416;-44
2022/07/27 09:48:11;;;;;;;2.17;0.70;;;24.10;29.20;;;;;;5051496;28;20942;-45
2022/07/27 09:50:40;;;;;;;1.83;0.80;;;24.10;28.50;;;;;;5052595;28;20450;-45
2022/07/27 09:53:20;;;;;;;2.07;1.03;;;24.00;28.50;;;;;;5055404;28;20404;-46
2022/07/27 09:55:58;;;;;;;1.90;0.70;;;24.10;28.70;;;;;;5055142;28;20407;-45
2022/07/27 09:58:44;;;;;;;4.63;0.70;;;24.10;28.60;;;;;;5055336;28;20414;-46
2022/07/27 10:01:16;;;;;;;1.80;0.70;;;24.10;28.30;;;;;;5055308;28;20455;-46
2022/07/27 10:03:43;;;;;;;2.43;0.73;;;24.20;28.40;;;;;;5055497;28;20394;-45
2022/07/27 10:06:11;;;;;;;1.70;0.50;;;24.30;28.40;;;;;;5055011;28;20829;-45
2022/07/27 10:08:44;;;;;;;2.57;0.70;;;24.30;28.30;;;;;;5054974;28;20542;-45
2022/07/27 10:11:11;;;;;;;2.80;0.83;;;24.40;28.40;;;;;;5055010;28;20462;-45
2022/07/27 10:13:38;;;;;;;2.23;0.60;;;24.50;28.60;;;;;;5054937;28;20737;-45
2022/07/27 10:16:06;;;;;;;1.87;0.90;;;24.70;28.70;;;;;;5054747;28;20401;-45
2022/07/27 10:18:49;;;;;;;1.73;1.00;;;24.90;28.40;;;;;;5055030;28;20491;-46
2022/07/27 10:21:15;;;;;;;2.07;0.80;;;25.00;27.30;;;;;;5054958;28;20489;-45
2022/07/27 10:23:54;;;;;;;1.80;0.80;;;25.10;27.80;;;;;;5054738;28;20412;-45
2022/07/27 10:26:31;;;;;;;5.37;1.57;;;25.20;27.80;;;;;;5054529;28;20438;-46
2022/07/27 10:29:13;;;;;;;2.17;0.97;;;25.20;28.00;;;;;;5054749;28;20439;-45
2022/07/27 10:31:54;;;;;;;2.33;0.80;;;25.20;28.00;;;;;;5054676;28;20510;-46
2022/07/27 10:34:39;;;;;;;2.53;1.07;;;25.20;26.90;;;;;;5054570;28;20970;-46
2022/07/27 10:37:36;;;;;;;4.77;0.90;;;25.20;26.80;;;;;;5054345;28;20495;-45
2022/07/27 10:43:15;;;;;;;2.90;0.90;;;25.10;27.30;;;;;;5054713;28;20386;-45
2022/07/27 10:45:46;;;;;;;3.10;1.07;;;25.20;27.50;;;;;;5054248;28;20385;-45
2022/07/27 10:48:37;;;;;;;4.90;1.33;;;25.10;27.80;;;;;;5054269;28;20961;-45
2022/07/27 10:51:07;;;;;;;2.63;1.23;;;25.20;26.80;;;;;;5044245;28;20464;-45
2022/07/27 10:53:37;;;;;;;2.73;0.90;;;25.20;26.90;;;;;;5054203;28;20880;-45
2022/07/27 10:56:05;;;;;;;3.07;0.70;;;25.30;27.00;;;;;;5053997;28;20415;-46
2022/07/27 10:58:31;;;;;;;2.77;1.17;;;25.40;27.60;;;;;;5054143;28;20414;-44
2022/07/27 11:01:06;;;;;;;3.03;1.40;;;25.60;27.00;;;;;;5053995;28;20428;-45
2022/07/27 11:03:38;;;;;;;4.47;1.63;;;25.90;26.90;;;;;;5054063;28;20184;-46
2022/07/27 11:06:18;;;;;;;3.50;1.47;;;26.10;27.00;;;;;;5053760;28;20908;-46
2022/07/27 11:08:46;;;;;;;3.33;1.60;;;26.20;26.80;;;;;;5053919;28;20458;-44
2022/07/27 11:11:21;;;;;;;2.40;1.30;;;26.20;26.50;;;;;;5053864;28;20845;-44
2022/07/27 11:13:54;;;;;;;3.40;1.30;;;26.20;26.70;;;;;;5053881;28;20407;-46
2022/07/27 11:16:20;;;;;;;2.67;1.47;;;26.20;26.70;;;;;;5053691;28;20404;-44
2022/07/27 11:19:02;;;;;;;2.10;1.13;;;26.30;26.40;;;;;;5053782;28;20399;-44
2022/07/27 11:21:28;;;;;;;4.90;1.80;;;26.30;26.00;;;;;;5053643;28;20455;-42
2022/07/27 11:24:01;;;;;;;1.73;0.70;;;26.20;25.70;;;;;;5053707;28;20415;-44
2022/07/27 11:26:30;;;;;;;4.10;1.90;;;26.20;26.10;;;;;;5053331;28;20945;-44
2022/07/27 11:28:56;;;;;;;2.40;1.30;;;26.20;26.50;;;;;;5053487;28;20456;-43
2022/07/27 11:31:22;;;;;;;3.80;1.17;;;26.20;25.70;;;;;;5053686;28;20427;-43
2022/07/27 11:33:53;;;;;;;3.70;0.97;;;26.20;25.60;;;;;;5053432;28;20400;-45
2022/07/27 11:36:19;;;;;;;6.40;0.90;;;26.20;26.30;;;;;;5053314;28;20944;-46
2022/07/27 11:38:51;;;;;;;4.20;0.90;;;26.20;25.70;;;;;;5053424;28;20495;-46
2022/07/27 11:41:31;;;;;;;1.60;0.63;;;26.20;25.30;;;;;;5053185;28;20427;-45
2022/07/27 11:44:08;;;;;;;1.70;0.67;;;26.20;25.30;;;;;;5053464;28;20400;-45
2022/07/27 11:46:43;;;;;;;2.10;0.90;;;26.30;25.30;;;;;;5053069;28;20391;-45
2022/07/27 11:49:13;;;;;;;3.20;1.10;;;26.40;26.40;;;;;;5053386;28;20439;-45
2022/07/27 11:51:45;;;;;;;2.20;0.80;;;26.50;24.80;;;;;;5052954;28;20550;-44
2022/07/27 11:54:37;;;;;;;1.87;0.90;;;26.50;24.40;;;;;;5053277;28;20549;-44
2022/07/27 11:57:07;;;;;;;2.63;1.10;;;26.50;24.70;;;;;;5053139;28;20388;-44
2022/07/27 11:59:38;;;;;;;3.23;1.10;;;26.50;24.80;;;;;;5053581;28;20465;-45
2022/07/27 12:02:07;;;;;;;3.10;1.17;;;26.50;25.00;;;;;;5052910;28;20918;-45
2022/07/27 12:04:34;;;;;;;2.90;0.90;;;26.60;25.30;;;;;;5052935;28;20495;-44
2022/07/27 12:07:10;;;;;;;4.77;1.43;;;26.60;25.00;;;;;;5052574;28;20874;-45
2022/07/27 12:09:37;;;;;;;1.97;0.90;;;26.70;25.20;;;;;;5052809;28;20419;-44
2022/07/27 12:12:17;;;;;;;2.83;0.93;;;26.80;24.20;;;;;;5052814;28;20399;-45
2022/07/27 12:14:56;;;;;;;2.60;0.80;;;26.80;24.60;;;;;;5052473;28;20767;-45
2022/07/27 12:17:30;;;;;;;2.00;0.90;;;26.90;24.60;;;;;;5052545;28;20414;-45
2022/07/27 12:20:00;;;;;;;2.33;0.90;;;26.90;24.00;;;;;;5052519;28;20411;-43
2022/07/27 12:22:37;;;;;;;3.93;1.17;;;27.00;25.00;;;;;;5052566;28;20408;-45
2022/07/27 12:25:08;;;;;;;4.83;1.20;;;27.10;24.70;;;;;;5052656;28;20406;-45
2022/07/27 12:27:35;;;;;;;1.90;0.77;;;27.30;25.20;;;;;;5052415;28;20549;-45
2022/07/27 12:30:08;;;;;;;2.77;1.13;;;27.60;25.00;;;;;;5052472;28;20424;-45
2022/07/27 12:32:42;;;;;;;1.90;1.00;;;27.80;24.90;;;;;;5052308;28;20537;-45
2022/07/27 12:35:25;;;;;;;4.07;0.60;;;28.00;25.00;;;;;;5052354;28;20498;-45
2022/07/27 12:37:58;;;;;;;2.17;0.90;;;28.20;23.90;;;;;;5052133;28;20903;-45
2022/07/27 12:40:23;;;;;;;1.73;0.70;;;28.40;24.00;;;;;;5052205;28;20827;-45
2022/07/27 12:43:04;;;;;;;2.20;0.80;;;28.50;23.80;;;;;;5052225;28;20507;-45
2022/07/27 12:45:37;;;;;;;2.70;0.90;;;28.80;23.30;;;;;;5052111;28;20526;-45
2022/07/27 12:48:08;;;;;;;4.07;1.23;;;29.00;23.90;;;;;;5052134;28;20451;-44
2022/07/27 12:50:35;;;;;;;1.90;1.20;;;29.10;24.00;;;;;;5051986;28;20443;-45
2022/07/27 12:53:01;;;;;;;2.97;1.20;;;29.30;23.70;;;;;;5052153;28;20537;-45
2022/07/27 12:55:27;;;;;;;3.43;0.90;;;29.50;21.70;;;;;;5052056;28;20765;-45
2022/07/27 12:57:53;;;;;;;1.90;0.80;;;29.60;21.80;;;;;;5051919;28;20473;-44
2022/07/27 13:00:19;;;;;;;2.80;0.73;;;29.50;21.70;;;;;;5051909;28;20477;-45
2022/07/27 13:02:45;;;;;;;2.20;0.97;;;29.40;22.40;;;;;;5050680;28;20201;-44